Time;durP1;ratioP1;P1;durP2;ratioP2;P2;SDS_P1;SDS_P2;PMS_P1;PMS_P2;Temp;Humidity;BMP_temperature;BMP_pressure;BME280_temperature;BME280_humidity;BME280_pressure;Samples;Min_cycle;Max_cycle;Signal;HPM_P1;HPM_P2
2023/11/16 00:00:05;;;;;;;4.33;3.93;;;;;;;7.42;96.56;100894.91;5018944;28;20221;-73
2023/11/16 00:02:38;;;;;;;5.63;4.27;;;;;;;7.44;96.32;100888.28;5020636;28;20201;-73
2023/11/16 00:05:06;;;;;;;5.10;3.60;;;;;;;7.45;96.35;100884.56;5019608;28;20216;-73
2023/11/16 00:07:33;;;;;;;5.17;3.60;;;;;;;7.47;96.46;100892.16;5020252;28;20282;-72
2023/11/16 00:10:00;;;;;;;4.73;3.70;;;;;;;7.47;96.96;100894.78;5023693;28;20593;-73
2023/11/16 00:12:29;;;;;;;6.37;4.20;;;;;;;7.49;96.74;100887.38;5038500;28;20573;-74
2023/11/16 00:14:58;;;;;;;5.43;4.10;;;;;;;7.49;96.82;100890.81;5024077;28;20271;-73
2023/11/16 00:17:28;;;;;;;5.33;4.13;;;;;;;7.50;96.80;100888.97;5035476;28;20205;-74
2023/11/16 00:19:55;;;;;;;5.93;4.50;;;;;;;7.49;96.93;100879.50;5025457;28;20565;-73
2023/11/16 00:22:24;;;;;;;6.50;3.90;;;;;;;7.47;96.31;100879.81;5019323;28;20205;-72
2023/11/16 00:24:51;;;;;;;6.30;4.30;;;;;;;7.47;96.34;100886.91;5021035;28;20300;-73
2023/11/16 00:27:18;;;;;;;6.67;4.13;;;;;;;7.46;95.91;100888.00;5017190;28;20203;-74
2023/11/16 00:29:48;;;;;;;6.03;4.37;;;;;;;7.43;96.37;100886.75;5019719;28;20264;-73
2023/11/16 00:32:14;;;;;;;11.50;4.03;;;;;;;7.42;96.06;100887.81;5036168;28;20259;-74
2023/11/16 00:34:41;;;;;;;8.13;4.80;;;;;;;7.43;96.73;100885.94;5017847;28;20283;-73
2023/11/16 00:37:08;;;;;;;7.90;4.13;;;;;;;7.43;96.36;100884.09;5022034;28;20204;-73
2023/11/16 00:39:34;;;;;;;11.23;4.50;;;;;;;7.43;96.39;100883.31;5037053;28;20233;-73
2023/11/16 00:42:03;;;;;;;4.70;4.00;;;;;;;7.42;96.27;100881.78;5027822;28;20570;-73
2023/11/16 00:44:29;;;;;;;6.77;4.67;;;;;;;7.42;96.57;100876.50;5020076;28;20270;-73
2023/11/16 00:46:58;;;;;;;8.40;5.07;;;;;;;7.41;96.96;100886.25;5022074;28;20194;-73
2023/11/16 00:49:27;;;;;;;5.97;4.37;;;;;;;7.41;97.01;100882.84;5021527;28;20608;-74
2023/11/16 00:51:53;;;;;;;10.87;4.47;;;;;;;7.40;96.60;100883.94;5022796;28;20588;-73
2023/11/16 00:54:22;;;;;;;8.63;4.10;;;;;;;7.40;97.01;100884.69;5021775;28;20706;-73
2023/11/16 00:56:48;;;;;;;8.40;3.97;;;;;;;7.38;96.96;100878.97;5020242;28;20235;-73
2023/11/16 00:59:15;;;;;;;8.90;4.70;;;;;;;7.39;97.82;100879.72;5017869;28;20762;-73
2023/11/16 01:01:43;;;;;;;6.33;4.53;;;;;;;7.39;97.29;100885.78;5018593;28;20291;-74
2023/11/16 01:04:11;;;;;;;9.37;4.83;;;;;;;7.39;97.30;100882.34;5025509;28;20297;-73
2023/11/16 01:06:39;;;;;;;7.63;3.73;;;;;;;7.40;97.60;100882.06;5024484;28;20204;-73
2023/11/16 01:09:06;;;;;;;9.50;4.50;;;;;;;7.41;98.40;100883.59;5037200;28;20198;-73
2023/11/16 01:11:33;;;;;;;6.73;3.50;;;;;;;7.42;98.08;100876.50;5018753;28;20229;-73
2023/11/16 01:14:01;;;;;;;8.03;4.57;;;;;;;7.43;98.16;100878.84;5021206;28;20238;-73
2023/11/16 01:16:34;;;;;;;6.83;4.03;;;;;;;7.44;97.96;100871.72;5039533;28;20200;-72
2023/11/16 01:19:01;;;;;;;11.90;4.47;;;;;;;7.45;97.76;100871.44;5019202;28;20889;-74
2023/11/16 01:21:29;;;;;;;8.43;4.30;;;;;;;7.47;98.63;100879.03;5020459;28;20204;-73
2023/11/16 01:24:04;;;;;;;9.60;4.43;;;;;;;7.49;98.24;100879.50;5036381;28;20672;-73
2023/11/16 01:26:32;;;;;;;5.03;3.57;;;;;;;7.49;98.64;100880.28;5022882;28;20208;-73
2023/11/16 01:29:01;;;;;;;6.90;3.80;;;;;;;7.51;98.12;100886.00;5022482;28;20574;-74
2023/11/16 01:31:28;;;;;;;7.20;4.53;;;;;;;7.54;98.30;100884.66;5039132;28;21111;-74
2023/11/16 01:33:55;;;;;;;6.00;4.07;;;;;;;7.55;98.21;100878.31;5022231;28;20290;-73
2023/11/16 01:36:24;;;;;;;6.00;3.73;;;;;;;7.56;98.54;100877.25;5036515;28;20196;-73
2023/11/16 01:38:55;;;;;;;6.80;4.10;;;;;;;7.57;98.75;100879.56;5017393;28;20295;-73
2023/11/16 01:41:21;;;;;;;14.40;3.80;;;;;;;7.57;98.52;100876.94;5020612;28;20278;-73
2023/11/16 01:43:47;;;;;;;11.93;3.63;;;;;;;7.58;98.19;100875.09;5018966;28;20225;-73
2023/11/16 01:46:15;;;;;;;9.73;3.50;;;;;;;7.58;98.40;100875.09;5019723;28;20204;-73
2023/11/16 01:48:44;;;;;;;7.67;3.63;;;;;;;7.58;98.88;100875.09;5020717;28;20269;-74
2023/11/16 01:51:13;;;;;;;10.60;3.80;;;;;;;7.57;98.79;100873.56;5022970;28;20298;-74
2023/11/16 01:53:42;;;;;;;13.47;3.53;;;;;;;7.55;98.79;100870.44;5021507;28;20210;-73
2023/11/16 01:56:15;;;;;;;11.77;3.90;;;;;;;7.55;98.13;100870.44;5035976;28;20670;-73
2023/11/16 01:58:44;;;;;;;6.77;3.57;;;;;;;7.53;98.43;100875.22;5021057;28;20219;-73
2023/11/16 02:01:10;;;;;;;7.23;3.40;;;;;;;7.53;98.29;100875.22;5021888;28;20213;-74
2023/11/16 02:03:37;;;;;;;5.43;3.67;;;;;;;7.51;98.46;100875.50;5035824;28;20215;-74
2023/11/16 02:06:05;;;;;;;10.10;3.60;;;;;;;7.49;98.29;100867.16;5038235;28;20219;-74
2023/11/16 02:08:32;;;;;;;4.67;3.50;;;;;;;7.49;98.74;100872.41;5021176;28;20288;-74
2023/11/16 02:10:58;;;;;;;4.33;3.17;;;;;;;7.49;97.89;100869.00;5021863;28;20203;-74
2023/11/16 02:13:26;;;;;;;10.70;3.70;;;;;;;7.47;98.66;100866.69;5021903;28;20258;-73
2023/11/16 02:15:55;;;;;;;7.93;3.90;;;;;;;7.47;98.09;100873.78;5025247;28;20266;-73
2023/11/16 02:18:23;;;;;;;5.37;3.20;;;;;;;7.45;98.32;100874.06;5041895;28;20209;-74
2023/11/16 02:20:51;;;;;;;5.80;3.27;;;;;;;7.45;98.16;100874.06;5024164;28;20217;-73
2023/11/16 02:23:19;;;;;;;4.67;3.50;;;;;;;7.43;98.08;100868.34;5024426;28;20734;-73
2023/11/16 02:25:47;;;;;;;7.57;3.17;;;;;;;7.42;98.23;100869.44;5040460;28;20220;-73
2023/11/16 02:28:13;;;;;;;8.50;3.40;;;;;;;7.40;98.28;100868.94;5028576;28;20584;-73
2023/11/16 02:30:40;;;;;;;8.07;3.37;;;;;;;7.39;98.01;100870.00;5042280;28;20612;-73
2023/11/16 02:33:09;;;;;;;6.50;3.60;;;;;;;7.36;98.17;100865.34;5023578;28;20238;-74
2023/11/16 02:35:36;;;;;;;6.07;3.17;;;;;;;7.34;97.93;100872.75;5020010;28;20618;-74
2023/11/16 02:38:03;;;;;;;6.63;3.00;;;;;;;7.33;98.35;100865.16;5037724;28;20211;-74
2023/11/16 02:40:31;;;;;;;10.13;3.23;;;;;;;7.32;98.37;100861.78;5036835;28;20282;-73
2023/11/16 02:42:57;;;;;;;9.10;3.00;;;;;;;7.31;97.87;100857.56;5023490;28;20574;-74
2023/11/16 02:45:24;;;;;;;4.17;3.13;;;;;;;7.29;98.28;100859.72;5020217;28;20903;-73
2023/11/16 02:47:52;;;;;;;7.47;2.70;;;;;;;7.29;98.05;100856.31;5023878;28;20193;-73
2023/11/16 02:50:20;;;;;;;6.03;2.63;;;;;;;7.27;98.28;100858.47;5038240;28;20207;-74
2023/11/16 02:52:46;;;;;;;4.77;3.20;;;;;;;7.27;98.57;100866.34;5033883;28;20208;-73
2023/11/16 02:55:17;;;;;;;5.93;3.30;;;;;;;7.26;98.30;100876.06;5027207;28;20220;-73
2023/11/16 02:57:45;;;;;;;5.97;2.80;;;;;;;7.29;98.27;100866.81;5024461;28;20190;-73
2023/11/16 03:00:14;;;;;;;9.70;3.60;;;;;;;7.28;98.41;100863.44;5025902;28;20247;-74
2023/11/16 03:02:45;;;;;;;5.60;2.50;;;;;;;7.29;99.28;100856.31;5022331;28;20584;-74
2023/11/16 03:05:15;;;;;;;5.00;2.50;;;;;;;7.31;99.06;100859.44;5025829;28;20220;-73
2023/11/16 03:07:42;;;;;;;6.27;3.10;;;;;;;7.31;99.62;100854.94;5022752;28;20484;-73
2023/11/16 03:10:11;;;;;;;4.77;2.57;;;;;;;7.33;99.58;100854.66;5023515;28;20185;-73
2023/11/16 03:12:38;;;;;;;6.23;2.73;;;;;;;7.34;99.03;100856.97;5024264;28;20200;-74
2023/11/16 03:15:07;;;;;;;4.10;2.50;;;;;;;7.35;99.77;100855.91;5026303;28;20692;-73
2023/11/16 03:17:33;;;;;;;6.27;3.07;;;;;;;7.35;99.33;100852.53;5021590;28;20212;-73
2023/11/16 03:20:00;;;;;;;3.87;2.60;;;;;;;7.34;99.34;100851.72;5037651;28;20217;-72
2023/11/16 03:22:26;;;;;;;5.40;2.73;;;;;;;7.32;98.91;100856.50;5022855;28;20572;-74
2023/11/16 03:24:53;;;;;;;5.93;3.23;;;;;;;7.30;98.52;100855.25;5021866;28;20214;-74
2023/11/16 03:27:22;;;;;;;8.97;2.77;;;;;;;7.29;98.15;100854.47;5025264;28;20259;-74
2023/11/16 03:29:49;;;;;;;5.87;3.10;;;;;;;7.29;99.23;100851.84;5022586;28;20197;-73
2023/11/16 03:32:18;;;;;;;4.30;2.57;;;;;;;7.27;99.03;100859.25;5041084;28;20189;-73
2023/11/16 03:34:44;;;;;;;5.30;2.53;;;;;;;7.27;98.85;100861.88;5020666;28;20212;-73
2023/11/16 03:37:11;;;;;;;8.80;2.37;;;;;;;7.26;98.71;100859.53;5036644;28;20200;-73
2023/11/16 03:39:38;;;;;;;6.87;2.93;;;;;;;7.22;98.81;100848.06;5021596;28;20241;-73
2023/11/16 03:42:05;;;;;;;5.27;2.37;;;;;;;7.19;98.67;100857.31;5024354;28;20223;-73
2023/11/16 03:44:32;;;;;;;9.70;2.67;;;;;;;7.16;98.66;100846.63;5040643;28;20585;-73
2023/11/16 03:46:59;;;;;;;6.43;2.83;;;;;;;7.11;98.33;100847.53;5024410;28;20208;-74
2023/11/16 03:49:26;;;;;;;9.17;2.57;;;;;;;7.08;97.84;100842.84;5021897;28;20279;-73
2023/11/16 03:51:53;;;;;;;8.53;3.10;;;;;;;7.04;97.73;100851.63;5024410;28;20200;-73
2023/11/16 03:54:22;;;;;;;7.43;2.50;;;;;;;7.01;98.77;100842.50;5035417;28;20689;-74
2023/11/16 03:56:49;;;;;;;5.93;2.53;;;;;;;6.99;98.64;100841.22;5021678;28;20200;-73
2023/11/16 03:59:16;;;;;;;8.17;2.90;;;;;;;6.96;98.71;100837.34;5020891;28;20271;-74
2023/11/16 04:01:44;;;;;;;4.50;2.50;;;;;;;6.94;98.70;100838.72;5021092;28;20623;-73
2023/11/16 04:04:13;;;;;;;5.83;2.60;;;;;;;6.93;98.10;100834.50;5020751;28;20692;-73
2023/11/16 04:06:41;;;;;;;11.23;2.80;;;;;;;6.90;98.37;100822.78;5020952;28;20563;-74
2023/11/16 04:09:09;;;;;;;7.50;2.83;;;;;;;6.90;98.62;100833.28;5023166;28;20190;-73
2023/11/16 04:11:40;;;;;;;4.93;2.77;;;;;;;6.87;98.12;100820.72;5018522;28;20192;-73
2023/11/16 04:14:07;;;;;;;7.33;3.00;;;;;;;6.87;98.08;100822.56;5024107;28;20227;-73
2023/11/16 04:16:35;;;;;;;5.50;2.70;;;;;;;6.86;98.98;100827.06;5039955;28;20200;-73
2023/11/16 04:19:03;;;;;;;6.93;2.97;;;;;;;6.85;99.01;100830.75;5037119;28;20200;-73
2023/11/16 04:21:36;;;;;;;3.87;2.73;;;;;;;6.83;98.02;100826.88;5023401;28;20216;-73
2023/11/16 04:24:11;;;;;;;9.07;3.23;;;;;;;6.81;98.01;100826.38;5024619;28;20202;-73
2023/11/16 04:26:38;;;;;;;7.93;2.40;;;;;;;6.78;97.99;100825.09;5018919;28;20206;-73
2023/11/16 04:29:05;;;;;;;7.23;2.77;;;;;;;6.74;97.66;100816.25;5032734;28;20287;-73
2023/11/16 04:31:32;;;;;;;4.27;2.53;;;;;;;6.72;98.08;100828.13;5035641;28;20219;-73
2023/11/16 04:33:59;;;;;;;6.60;2.40;;;;;;;6.70;97.47;100830.28;5037143;28;20611;-74
2023/11/16 04:36:28;;;;;;;4.87;2.40;;;;;;;6.67;97.88;100829.00;5018913;28;20684;-74
2023/11/16 04:38:56;;;;;;;5.80;3.30;;;;;;;6.66;98.79;100816.19;5040532;28;20251;-73
2023/11/16 04:41:23;;;;;;;4.80;2.53;;;;;;;6.67;97.73;100813.28;5022742;28;20246;-73
2023/11/16 04:43:56;;;;;;;7.13;3.10;;;;;;;6.67;98.43;100808.03;5018287;28;20200;-73
2023/11/16 04:46:26;;;;;;;8.60;3.23;;;;;;;6.69;98.74;100810.34;5024560;28;20204;-73
2023/11/16 04:48:54;;;;;;;8.40;3.50;;;;;;;6.68;98.05;100804.31;5018008;28;20200;-73
2023/11/16 04:51:21;;;;;;;8.80;3.23;;;;;;;6.70;97.96;100806.66;5021950;28;20219;-73
2023/11/16 04:53:47;;;;;;;4.17;2.90;;;;;;;6.71;97.95;100801.13;5020121;28;20207;-73
2023/11/16 04:56:14;;;;;;;5.93;3.07;;;;;;;6.72;98.79;100807.13;5023061;28;20199;-73
2023/11/16 04:58:42;;;;;;;4.70;2.73;;;;;;;6.73;98.69;100806.09;5020899;28;20208;-74
2023/11/16 05:01:09;;;;;;;8.40;3.17;;;;;;;6.72;98.26;100802.66;5019870;28;20215;-73
2023/11/16 05:03:35;;;;;;;4.23;2.87;;;;;;;6.74;98.36;100811.00;5023995;28;20188;-73
2023/11/16 05:06:02;;;;;;;4.03;2.60;;;;;;;6.76;98.28;100797.59;5020614;28;20216;-73
2023/11/16 05:08:29;;;;;;;5.70;2.60;;;;;;;6.77;98.51;100793.91;5021627;28;20327;-73
2023/11/16 05:10:57;;;;;;;6.33;2.70;;;;;;;6.78;98.63;100796.25;5017545;28;20192;-73
2023/11/16 05:13:24;;;;;;;7.93;2.57;;;;;;;6.80;98.51;100793.31;5021660;28;20265;-74
2023/11/16 05:15:51;;;;;;;3.93;2.57;;;;;;;6.81;98.44;100795.66;5020995;28;20216;-73
2023/11/16 05:18:18;;;;;;;7.13;2.97;;;;;;;6.83;98.27;100798.00;5018820;28;20202;-73
2023/11/16 05:20:46;;;;;;;6.73;2.13;;;;;;;6.86;98.79;100781.66;5021508;28;20573;-73
2023/11/16 05:23:12;;;;;;;6.93;2.13;;;;;;;6.89;97.77;100781.06;5022909;28;20529;-74
2023/11/16 05:25:39;;;;;;;8.97;2.90;;;;;;;6.90;98.01;100786.03;5020450;28;20215;-74
2023/11/16 05:28:06;;;;;;;6.57;2.80;;;;;;;6.93;97.89;100785.41;5019916;28;20506;-73
2023/11/16 05:30:33;;;;;;;7.57;2.60;;;;;;;6.95;97.94;100785.13;5019446;28;20203;-74
2023/11/16 05:33:02;;;;;;;7.20;2.43;;;;;;;6.96;97.44;100781.44;5022931;28;20196;-74
2023/11/16 05:35:29;;;;;;;5.03;2.50;;;;;;;6.96;97.61;100782.22;5019963;28;20297;-73
2023/11/16 05:37:56;;;;;;;10.87;2.93;;;;;;;6.99;97.43;100781.59;5017986;28;20192;-73
2023/11/16 05:40:22;;;;;;;7.90;2.63;;;;;;;7.00;97.33;100771.91;5023888;28;20210;-73
2023/11/16 05:42:49;;;;;;;5.30;3.03;;;;;;;7.01;97.46;100773.44;5020840;28;20201;-73
2023/11/16 05:45:15;;;;;;;8.77;2.87;;;;;;;7.02;97.19;100780.25;5027336;28;20215;-73
2023/11/16 05:47:41;;;;;;;4.87;2.63;;;;;;;7.02;97.70;100775.00;5024910;28;20205;-73
2023/11/16 05:50:10;;;;;;;4.23;2.07;;;;;;;7.03;97.48;100771.28;5024550;28;20673;-73
2023/11/16 05:52:37;;;;;;;4.47;2.53;;;;;;;7.03;97.67;100776.53;5022338;28;20192;-72
2023/11/16 05:55:03;;;;;;;3.23;2.10;;;;;;;7.04;97.21;100778.88;5022792;28;20212;-73
2023/11/16 05:57:30;;;;;;;5.87;2.00;;;;;;;7.04;97.38;100775.50;5023399;28;20208;-74
2023/11/16 05:59:56;;;;;;;9.97;2.43;;;;;;;7.04;96.66;100775.50;5024668;28;20200;-74
2023/11/16 06:02:23;;;;;;;4.90;2.77;;;;;;;7.04;97.03;100771.00;5014704;28;20615;-73
2023/11/16 06:04:50;;;;;;;4.63;2.93;;;;;;;7.02;96.95;100773.16;5022223;28;20227;-73
2023/11/16 06:07:18;;;;;;;6.03;2.40;;;;;;;7.03;95.86;100777.31;5022402;28;20225;-74
2023/11/16 06:09:44;;;;;;;8.30;2.93;;;;;;;7.02;96.95;100775.00;5026490;28;20204;-73
2023/11/16 06:12:15;;;;;;;4.07;2.53;;;;;;;7.01;96.38;100778.69;5027609;28;20193;-73
2023/11/16 06:14:41;;;;;;;8.90;2.93;;;;;;;7.00;95.89;100774.53;5026722;28;20306;-73
2023/11/16 06:17:08;;;;;;;4.10;2.60;;;;;;;7.01;96.71;100778.69;5022627;28;20196;-73
2023/11/16 06:19:34;;;;;;;6.33;2.27;;;;;;;7.00;96.71;100770.03;5040986;28;20193;-73
2023/11/16 06:22:01;;;;;;;3.13;2.00;;;;;;;6.99;96.55;100762.47;5023228;28;20631;-73
2023/11/16 06:24:28;;;;;;;5.80;3.33;;;;;;;6.97;96.32;100773.25;5024913;28;20223;-74
2023/11/16 06:26:55;;;;;;;5.87;2.30;;;;;;;6.98;96.79;100766.16;5042122;28;20549;-73
2023/11/16 06:29:21;;;;;;;9.33;2.37;;;;;;;6.98;96.14;100766.16;5019551;28;20201;-73
2023/11/16 06:31:47;;;;;;;4.00;2.33;;;;;;;6.98;96.48;100764.31;5021067;28;20200;-73
2023/11/16 06:34:14;;;;;;;7.30;4.53;;;;;;;6.98;95.78;100766.16;5024699;28;20225;-73
2023/11/16 06:36:41;;;;;;;3.73;2.30;;;;;;;6.96;96.21;100761.22;5023229;28;20197;-74
2023/11/16 06:39:07;;;;;;;5.90;2.30;;;;;;;6.97;96.14;100764.59;5023303;28;20283;-74
2023/11/16 06:41:37;;;;;;;4.03;2.10;;;;;;;6.98;95.79;100761.69;5025251;28;20207;-73
2023/11/16 06:44:05;;;;;;;3.60;2.10;;;;;;;6.99;96.11;100760.59;5025022;28;20564;-73
2023/11/16 06:46:33;;;;;;;4.33;2.13;;;;;;;7.01;95.96;100755.06;5024293;28;20211;-73
2023/11/16 06:48:59;;;;;;;2.90;2.40;;;;;;;7.03;95.68;100772.06;5025239;28;20611;-74
2023/11/16 06:51:27;;;;;;;6.97;3.60;;;;;;;7.04;95.51;100760.50;5023383;28;20183;-73
2023/11/16 06:53:53;;;;;;;8.97;4.70;;;;;;;7.05;95.02;100750.78;5020704;28;20710;-74
2023/11/16 06:56:20;;;;;;;5.27;2.60;;;;;;;7.07;95.65;100759.91;5023669;28;20783;-73
2023/11/16 06:58:48;;;;;;;8.43;3.00;;;;;;;7.09;95.20;100759.63;5023917;28;20207;-73
2023/11/16 07:01:15;;;;;;;8.03;3.40;;;;;;;7.11;94.60;100760.09;5020795;28;20228;-73
2023/11/16 07:03:44;;;;;;;6.63;4.50;;;;;;;7.12;95.73;100759.78;5023885;28;20207;-73
2023/11/16 07:06:11;;;;;;;8.73;3.80;;;;;;;7.14;95.30;100752.38;5025474;28;20200;-73
2023/11/16 07:08:41;;;;;;;5.70;2.93;;;;;;;7.16;95.68;100752.09;5019034;28;20207;-73
2023/11/16 07:11:07;;;;;;;7.50;3.87;;;;;;;7.18;95.64;100755.19;5025048;28;20726;-73
2023/11/16 07:13:34;;;;;;;8.60;3.20;;;;;;;7.20;94.94;100755.69;5028385;28;20790;-73
2023/11/16 07:16:03;;;;;;;6.13;3.37;;;;;;;7.23;95.06;100752.44;5018521;28;20315;-73
2023/11/16 07:18:29;;;;;;;5.10;3.03;;;;;;;7.26;94.68;100751.84;5025857;28;20212;-74
2023/11/16 07:21:04;;;;;;;7.97;4.07;;;;;;;7.29;95.43;100752.03;5028722;28;20298;-73
2023/11/16 07:23:30;;;;;;;7.73;4.60;;;;;;;7.32;94.59;100753.28;5021131;28;20277;-73
2023/11/16 07:25:59;;;;;;;5.63;3.50;;;;;;;7.35;94.87;100752.69;5024775;28;20225;-73
2023/11/16 07:28:26;;;;;;;3.03;2.27;;;;;;;7.36;94.21;100747.13;5027058;28;20542;-73
2023/11/16 07:30:52;;;;;;;7.30;3.30;;;;;;;7.40;94.88;100749.94;5029956;28;20204;-73
2023/11/16 07:33:23;;;;;;;4.17;2.50;;;;;;;7.42;94.56;100753.84;5027109;28;20586;-73
2023/11/16 07:35:50;;;;;;;7.97;3.60;;;;;;;7.45;94.53;100752.47;5020650;28;20224;-73
2023/11/16 07:38:17;;;;;;;11.43;4.77;;;;;;;7.48;94.06;100751.84;5028429;28;20204;-73
2023/11/16 07:40:44;;;;;;;9.60;2.80;;;;;;;7.51;93.63;100753.88;5026230;28;20198;-73
2023/11/16 07:43:11;;;;;;;6.70;3.53;;;;;;;7.54;93.92;100750.63;5027311;28;20207;-73
2023/11/16 07:45:37;;;;;;;5.80;2.67;;;;;;;7.57;93.93;100755.31;5021780;28;20220;-73
2023/11/16 07:48:04;;;;;;;8.80;3.40;;;;;;;7.61;93.68;100748.38;5024976;28;20201;-73
2023/11/16 07:50:32;;;;;;;3.53;2.10;;;;;;;7.64;92.73;100745.13;5030013;28;20687;-73
2023/11/16 07:52:59;;;;;;;3.93;2.37;;;;;;;7.68;92.95;100746.88;5019204;28;20206;-74
2023/11/16 07:55:27;;;;;;;4.70;2.27;;;;;;;7.71;92.61;100745.50;5023370;28;20249;-74
2023/11/16 07:57:54;;;;;;;5.20;1.93;;;;;;;7.76;92.22;100753.25;5023282;28;20573;-74
2023/11/16 08:00:30;;;;;;;3.10;1.63;;;;;;;7.77;91.87;100744.28;5038668;28;20217;-73
2023/11/16 08:05:45;;;;;;;2.60;2.20;;;;;;;7.82;91.87;100737.03;5024342;28;20767;-73
2023/11/16 08:08:14;;;;;;;9.73;3.00;;;;;;;7.85;90.84;100735.66;5024663;28;20598;-73
2023/11/16 08:10:41;;;;;;;2.13;1.73;;;;;;;7.88;92.10;100729.78;5021984;28;20914;-73
2023/11/16 08:13:09;;;;;;;5.53;2.33;;;;;;;7.92;90.64;100738.63;5039004;28;20189;-74
2023/11/16 08:15:35;;;;;;;4.03;2.33;;;;;;;7.94;90.64;100729.34;5024877;28;20225;-73
2023/11/16 08:18:02;;;;;;;5.40;2.80;;;;;;;7.99;91.05;100736.31;5023232;28;20316;-74
2023/11/16 08:20:31;;;;;;;6.03;2.00;;;;;;;8.03;90.35;100726.75;5024025;28;20257;-74
2023/11/16 08:22:58;;;;;;;6.23;1.97;;;;;;;8.08;91.32;100737.13;5026533;28;20217;-73
2023/11/16 08:25:28;;;;;;;7.33;2.57;;;;;;;8.10;90.57;100722.59;5029915;28;20617;-73
2023/11/16 08:27:55;;;;;;;5.73;2.10;;;;;;;8.14;88.70;100731.41;5023291;28;20594;-74
2023/11/16 08:30:23;;;;;;;3.70;1.93;;;;;;;8.18;88.05;100727.09;5025272;28;20210;-74
2023/11/16 08:32:50;;;;;;;2.63;1.40;;;;;;;8.21;88.94;100729.16;5019731;28;20194;-73
2023/11/16 08:35:18;;;;;;;4.20;2.10;;;;;;;8.23;89.85;100721.72;5025799;28;20225;-74
2023/11/16 08:37:45;;;;;;;3.33;1.80;;;;;;;8.25;89.23;100727.47;5029640;28;20201;-74
2023/11/16 08:40:16;;;;;;;5.10;2.33;;;;;;;8.29;89.26;100735.53;5044218;28;20206;-73
2023/11/16 08:42:43;;;;;;;6.37;2.10;;;;;;;8.33;88.38;100736.47;5021942;28;20299;-74
2023/11/16 08:45:17;;;;;;;3.20;1.63;;;;;;;8.38;87.88;100720.53;5024295;28;20223;-74
2023/11/16 08:47:47;;;;;;;2.60;1.37;;;;;;;8.41;87.19;100718.06;5025743;28;20209;-74
2023/11/16 08:50:16;;;;;;;3.83;2.00;;;;;;;8.45;86.24;100723.50;5025831;28;20205;-74
2023/11/16 08:52:45;;;;;;;1.47;1.20;;;;;;;8.48;85.22;100715.75;5022399;28;20590;-73
2023/11/16 08:55:14;;;;;;;3.57;1.70;;;;;;;8.53;85.03;100720.06;5026675;28;20702;-74
2023/11/16 08:57:42;;;;;;;3.77;1.60;;;;;;;8.57;86.42;100710.50;5021847;28;20221;-73
2023/11/16 09:00:28;;;;;;;4.90;1.70;;;;;;;8.61;86.72;100717.47;5023464;28;20254;-73
2023/11/16 09:02:56;;;;;;;3.57;1.70;;;;;;;8.66;85.09;100717.34;5019013;28;20224;-74
2023/11/16 09:05:23;;;;;;;1.60;1.20;;;;;;;8.68;84.54;100714.38;5036712;28;20216;-73
2023/11/16 09:07:50;;;;;;;4.60;1.80;;;;;;;8.72;85.19;100726.63;5024755;28;20205;-74
2023/11/16 09:10:19;;;;;;;5.27;1.70;;;;;;;8.76;84.37;100722.25;5026032;28;20202;-73
2023/11/16 09:12:47;;;;;;;4.50;1.20;;;;;;;8.79;85.01;100723.50;5024026;28;20253;-75
2023/11/16 09:15:14;;;;;;;5.03;1.80;;;;;;;8.82;84.87;100728.94;5021028;28;20226;-74
2023/11/16 09:17:44;;;;;;;2.57;1.90;;;;;;;8.85;83.07;100720.41;5020712;28;20230;-73
2023/11/16 09:20:12;;;;;;;2.93;1.10;;;;;;;8.87;83.45;100726.16;5026811;28;20191;-74
2023/11/16 09:22:39;;;;;;;1.87;1.40;;;;;;;8.90;83.45;100722.13;5016849;28;20616;-74
2023/11/16 09:25:10;;;;;;;4.30;2.03;;;;;;;8.93;84.09;100716.22;5022007;28;20216;-73
2023/11/16 09:27:38;;;;;;;4.43;1.57;;;;;;;8.95;82.18;100714.84;5024609;28;20277;-74
2023/11/16 09:30:06;;;;;;;3.83;1.67;;;;;;;8.98;82.71;100708.97;5036616;28;20857;-74
2023/11/16 09:32:32;;;;;;;2.47;1.20;;;;;;;9.00;82.00;100719.19;5020353;28;20203;-74
2023/11/16 09:34:59;;;;;;;2.10;1.23;;;;;;;9.02;82.42;100712.53;5021770;28;20213;-75
2023/11/16 09:37:27;;;;;;;2.80;1.23;;;;;;;9.03;83.99;100718.56;5023772;28;20252;-73
2023/11/16 09:39:54;;;;;;;2.93;1.50;;;;;;;9.04;82.17;100720.09;5027396;28;20282;-74
2023/11/16 09:42:26;;;;;;;5.07;1.30;;;;;;;9.07;81.66;100716.84;5024354;28;20770;-74
2023/11/16 09:44:58;;;;;;;3.93;1.50;;;;;;;9.09;80.92;100718.09;5016723;28;20220;-74
2023/11/16 09:47:29;;;;;;;3.13;1.40;;;;;;;9.10;80.52;100708.31;5024772;28;20665;-74
2023/11/16 09:49:56;;;;;;;5.20;1.47;;;;;;;9.10;82.09;100708.31;5024835;28;20271;-73
2023/11/16 09:52:23;;;;;;;3.40;1.77;;;;;;;9.12;81.52;100699.00;5023269;28;20195;-74
2023/11/16 09:54:51;;;;;;;2.03;1.27;;;;;;;9.10;82.18;100701.19;5025779;28;20216;-74
2023/11/16 09:57:20;;;;;;;4.77;1.47;;;;;;;9.12;80.82;100696.38;5024050;28;20207;-74
2023/11/16 09:59:50;;;;;;;2.43;1.40;;;;;;;9.19;82.21;100688.78;5023328;28;20216;-73
2023/11/16 10:02:23;;;;;;;5.00;1.60;;;;;;;9.27;82.79;100689.84;5019214;28;20241;-74
2023/11/16 10:04:50;;;;;;;3.60;1.50;;;;;;;9.30;80.93;100687.38;5022856;28;20221;-74
2023/11/16 10:07:20;;;;;;;2.57;1.57;;;;;;;9.34;80.61;100679.59;5022754;28;20208;-73
2023/11/16 10:09:47;;;;;;;4.00;1.80;;;;;;;9.37;81.09;100682.38;5027912;28;20208;-73
2023/11/16 10:12:14;;;;;;;4.80;1.53;;;;;;;9.42;81.94;100673.56;5026514;28;20196;-74
2023/11/16 10:14:41;;;;;;;2.43;1.40;;;;;;;9.51;82.46;100663.72;5026406;28;20219;-74
2023/11/16 10:17:07;;;;;;;5.53;2.00;;;;;;;9.58;79.57;100670.06;5025187;28;20575;-74
2023/11/16 10:19:35;;;;;;;4.17;1.57;;;;;;;9.67;80.40;100660.25;5023425;28;20634;-73
2023/11/16 10:22:02;;;;;;;3.87;1.60;;;;;;;9.76;79.44;100665.50;5022919;28;20271;-74
2023/11/16 10:24:28;;;;;;;5.07;1.27;;;;;;;9.87;78.52;100664.81;5022440;28;20216;-74
2023/11/16 10:26:55;;;;;;;4.77;1.60;;;;;;;9.97;78.08;100663.69;5023153;28;20193;-74
2023/11/16 10:29:22;;;;;;;2.93;1.63;;;;;;;10.05;78.00;100655.00;5026915;28;20232;-73
2023/11/16 10:31:48;;;;;;;5.43;1.53;;;;;;;10.10;78.16;100654.81;5024659;28;21097;-73
2023/11/16 10:34:15;;;;;;;2.57;1.43;;;;;;;10.10;76.82;100658.19;5026186;28;20217;-73
2023/11/16 10:36:44;;;;;;;3.30;1.33;;;;;;;10.12;80.13;100653.38;5021615;28;20208;-74
2023/11/16 10:39:12;;;;;;;3.30;1.20;;;;;;;10.11;76.32;100636.03;5022685;28;20247;-73
2023/11/16 10:41:40;;;;;;;4.20;1.40;;;;;;;10.12;77.29;100640.19;5029117;28;20203;-73
2023/11/16 10:44:07;;;;;;;3.13;1.23;;;;;;;10.13;76.59;100647.00;5026451;28;20231;-74
2023/11/16 10:46:34;;;;;;;3.37;1.30;;;;;;;10.15;80.82;100652.72;5027847;28;20689;-73
2023/11/16 10:49:01;;;;;;;6.73;1.17;;;;;;;10.13;76.79;100647.00;5024337;28;20260;-73
2023/11/16 10:51:28;;;;;;;2.40;1.33;;;;;;;10.16;76.69;100641.13;5026036;28;20204;-73
2023/11/16 10:54:01;;;;;;;3.60;1.17;;;;;;;10.18;77.74;100643.41;5023437;28;20696;-74
2023/11/16 10:56:28;;;;;;;2.73;1.23;;;;;;;10.17;75.93;100639.22;5028210;28;20426;-74
2023/11/16 10:59:05;;;;;;;2.00;1.00;;;;;;;10.21;76.97;100632.22;5027156;28;20582;-74
2023/11/16 11:01:34;;;;;;;1.67;1.20;;;;;;;10.19;75.49;100639.69;5025825;28;20632;-74
2023/11/16 11:04:03;;;;;;;3.03;1.37;;;;;;;10.16;75.00;100635.84;5041859;28;20233;-74
2023/11/16 11:06:32;;;;;;;2.10;1.30;;;;;;;10.12;74.72;100628.84;5026599;28;20201;-73
2023/11/16 11:09:00;;;;;;;5.20;1.60;;;;;;;10.11;75.58;100633.38;5024130;28;20196;-74
2023/11/16 11:11:28;;;;;;;3.20;1.57;;;;;;;10.11;76.28;100632.59;5025132;28;20477;-74
2023/11/16 11:13:56;;;;;;;2.67;1.20;;;;;;;10.12;76.92;100634.13;5024559;28;20207;-74
2023/11/16 11:16:25;;;;;;;3.53;1.57;;;;;;;10.06;76.86;100622.22;5027050;28;20201;-74
2023/11/16 11:18:52;;;;;;;2.63;1.43;;;;;;;10.02;75.22;100624.72;5019880;28;20747;-74
2023/11/16 11:21:20;;;;;;;3.37;1.27;;;;;;;10.03;75.97;100620.19;5025754;28;20608;-74
2023/11/16 11:23:59;;;;;;;2.63;1.00;;;;;;;10.01;76.85;100619.75;5023980;28;20222;-73
2023/11/16 11:26:37;;;;;;;2.00;1.10;;;;;;;9.99;78.01;100614.78;5025086;28;20203;-73
2023/11/16 11:29:04;;;;;;;2.10;1.30;;;;;;;9.96;78.24;100614.66;5026483;28;20201;-74
2023/11/16 11:31:43;;;;;;;2.87;1.20;;;;;;;9.93;76.93;100615.31;5027640;28;20254;-74
2023/11/16 11:34:11;;;;;;;3.03;1.20;;;;;;;9.91;77.85;100615.63;5027479;28;20640;-73
2023/11/16 11:36:40;;;;;;;2.17;1.30;;;;;;;9.91;78.22;100617.47;5029085;28;20710;-73